createdAt,value
2023-04-30T00:00:41.121Z,57.80
2023-04-30T00:03:09.580Z,57.90
2023-04-30T00:05:39.896Z,57.80
2023-04-30T00:08:08.396Z,57.90
2023-04-30T00:10:36.695Z,58.00
2023-04-30T00:13:05.135Z,58.70
2023-04-30T00:15:33.470Z,58.30
2023-04-30T00:18:01.888Z,58.50
2023-04-30T00:20:30.543Z,58.70
2023-04-30T00:23:00.231Z,58.80
2023-04-30T00:25:28.779Z,58.90
2023-04-30T00:27:57.444Z,59.10
2023-04-30T00:30:25.788Z,59.10
2023-04-30T00:32:54.305Z,59.20
2023-04-30T00:35:22.883Z,59.30
2023-04-30T00:37:51.234Z,59.40
2023-04-30T00:40:22.136Z,59.40
2023-04-30T00:42:52.455Z,59.50
2023-04-30T00:45:22.179Z,59.70
2023-04-30T00:47:51.502Z,59.60
2023-04-30T00:50:20.417Z,59.50
2023-04-30T00:52:48.965Z,59.60
2023-04-30T00:55:18.302Z,59.70
2023-04-30T00:57:48.871Z,59.80
2023-04-30T01:00:17.802Z,60.00
2023-04-30T01:02:47.410Z,60.10
2023-04-30T01:05:15.943Z,60.50
2023-04-30T01:07:46.329Z,60.50
2023-04-30T01:10:16.683Z,60.70
2023-04-30T01:12:57.117Z,60.90
2023-04-30T01:15:33.714Z,61.10
2023-04-30T01:18:09.331Z,61.50
2023-04-30T01:20:45.497Z,61.90
2023-04-30T01:23:27.376Z,62.10
2023-04-30T01:26:18.920Z,62.20
2023-04-30T01:28:51.847Z,62.30
2023-04-30T01:31:21.068Z,62.40
2023-04-30T01:33:49.500Z,62.50
2023-04-30T01:36:47.547Z,62.60
2023-04-30T01:39:29.900Z,62.70
2023-04-30T01:42:07.569Z,62.80
2023-04-30T01:45:08.804Z,62.90
2023-04-30T01:47:42.593Z,62.90
2023-04-30T01:50:21.951Z,62.90
2023-04-30T01:52:54.904Z,63.10
2023-04-30T01:55:29.658Z,63.20
2023-04-30T01:58:00.052Z,63.30
2023-04-30T02:00:31.728Z,63.70
2023-04-30T02:03:00.503Z,63.90
2023-04-30T02:05:29.036Z,64.10
2023-04-30T02:07:57.758Z,64.20
2023-04-30T02:10:27.483Z,64.30
2023-04-30T02:12:56.022Z,64.40
2023-04-30T02:15:24.478Z,64.40
2023-04-30T02:17:54.251Z,64.70
2023-04-30T02:20:22.734Z,64.90
2023-04-30T02:22:51.166Z,65.20
2023-04-30T02:25:19.685Z,65.40
2023-04-30T02:27:50.512Z,65.60
2023-04-30T02:30:19.947Z,66.00
2023-04-30T02:32:49.262Z,66.10
2023-04-30T02:35:19.022Z,66.60
2023-04-30T02:37:47.497Z,67.20
2023-04-30T02:40:16.265Z,67.90
2023-04-30T02:42:44.726Z,68.40
2023-04-30T02:45:13.157Z,69.10
2023-04-30T02:47:42.054Z,69.50
2023-04-30T02:50:10.830Z,70.20
2023-04-30T02:52:40.534Z,70.70
2023-04-30T02:55:09.706Z,71.20
2023-04-30T02:57:38.097Z,71.60
2023-04-30T03:00:07.553Z,72.00
2023-04-30T03:02:36.305Z,72.30
2023-04-30T03:05:05.296Z,72.50
2023-04-30T03:07:33.673Z,72.80
2023-04-30T03:10:03.498Z,72.80
2023-04-30T03:12:31.880Z,73.10
2023-04-30T03:15:00.486Z,73.60
2023-04-30T03:17:29.242Z,74.00
2023-04-30T03:19:57.756Z,74.60
2023-04-30T03:22:26.840Z,75.00
2023-04-30T03:24:55.505Z,75.40
2023-04-30T03:27:25.557Z,75.60
2023-04-30T03:29:54.112Z,75.80
2023-04-30T03:32:22.770Z,77.00
2023-04-30T03:34:51.760Z,77.40
2023-04-30T03:37:20.023Z,77.60
2023-04-30T03:39:48.399Z,78.00
2023-04-30T03:42:16.786Z,78.30
2023-04-30T03:44:46.605Z,78.70
2023-04-30T03:47:15.282Z,79.20
2023-04-30T03:49:43.874Z,79.80
2023-04-30T03:52:12.240Z,80.40
2023-04-30T03:54:40.711Z,81.20
2023-04-30T03:57:10.849Z,82.10
2023-04-30T03:59:39.283Z,83.30
2023-04-30T04:02:09.658Z,85.00
2023-04-30T04:04:38.379Z,87.10
2023-04-30T04:07:08.304Z,89.00
2023-04-30T04:09:36.837Z,90.50
2023-04-30T04:12:06.158Z,91.30
2023-04-30T04:14:34.676Z,92.20
2023-04-30T04:17:05.711Z,92.90
2023-04-30T04:19:36.185Z,93.40
2023-04-30T04:22:04.960Z,93.90
2023-04-30T04:24:33.469Z,94.50
2023-04-30T04:27:03.543Z,94.30
2023-04-30T04:29:32.310Z,94.80
2023-04-30T04:32:02.914Z,95.30
2023-04-30T04:34:32.352Z,96.10
2023-04-30T04:37:03.357Z,97.50
2023-04-30T04:39:31.880Z,99.00
2023-04-30T04:42:00.338Z,99.90
2023-04-30T04:44:29.192Z,99.90
2023-04-30T04:46:58.103Z,99.90
2023-04-30T04:49:26.900Z,99.90
2023-04-30T04:51:55.262Z,99.20
2023-04-30T04:54:25.200Z,98.00
2023-04-30T04:56:53.652Z,96.50
2023-04-30T04:59:22.177Z,94.80
2023-04-30T05:01:50.950Z,92.80
2023-04-30T05:04:19.361Z,90.60
2023-04-30T05:06:49.554Z,87.10
2023-04-30T05:09:18.127Z,83.40
2023-04-30T05:11:49.107Z,79.60
2023-04-30T05:14:17.981Z,76.60
2023-04-30T05:16:46.820Z,73.80
2023-04-30T05:19:15.374Z,72.00
2023-04-30T05:21:43.829Z,69.70
2023-04-30T05:24:12.280Z,68.40
2023-04-30T05:26:40.638Z,67.20
2023-04-30T05:29:10.651Z,65.50
2023-04-30T05:31:39.390Z,64.10
2023-04-30T05:34:07.957Z,62.10
2023-04-30T05:36:36.577Z,60.40
2023-04-30T05:39:05.763Z,59.40
2023-04-30T05:41:34.065Z,58.70
2023-04-30T05:44:05.056Z,58.10
2023-04-30T05:46:35.423Z,57.30
2023-04-30T05:49:03.862Z,56.40
2023-04-30T05:51:32.757Z,55.60
2023-04-30T05:54:01.449Z,54.50
2023-04-30T05:56:29.849Z,52.80
2023-04-30T05:58:58.253Z,52.40
2023-04-30T06:01:28.932Z,51.60
2023-04-30T06:03:59.663Z,50.00
2023-04-30T06:06:28.273Z,49.50
2023-04-30T06:08:56.794Z,49.00
2023-04-30T06:11:26.346Z,48.20
2023-04-30T06:13:54.935Z,47.00
2023-04-30T06:16:23.547Z,46.30
2023-04-30T06:18:53.650Z,45.50
2023-04-30T06:21:26.099Z,45.40
2023-04-30T06:23:54.782Z,44.20
2023-04-30T06:26:23.303Z,43.40
2023-04-30T06:28:51.689Z,43.10
2023-04-30T06:31:20.142Z,42.70
2023-04-30T06:33:48.655Z,42.50
2023-04-30T06:36:17.576Z,42.00
2023-04-30T06:38:48.166Z,41.60
2023-04-30T06:41:17.092Z,40.90
2023-04-30T06:43:45.655Z,39.60
2023-04-30T06:46:15.371Z,38.40
2023-04-30T06:48:43.935Z,37.80
2023-04-30T06:51:12.276Z,37.20
2023-04-30T06:53:40.653Z,37.20
2023-04-30T06:56:10.584Z,37.30
2023-04-30T06:58:38.949Z,37.30
2023-04-30T07:01:07.477Z,37.50
2023-04-30T07:03:36.356Z,38.40
2023-04-30T07:06:05.374Z,38.70
2023-04-30T07:08:33.756Z,40.50
2023-04-30T07:11:02.426Z,41.90
2023-04-30T07:13:32.187Z,42.50
2023-04-30T07:16:00.732Z,42.90
2023-04-30T07:18:29.280Z,42.40
2023-04-30T07:20:57.703Z,41.90
2023-04-30T07:23:26.865Z,41.20
2023-04-30T07:25:56.715Z,41.10
2023-04-30T07:28:25.216Z,41.10
2023-04-30T07:30:54.888Z,40.20
2023-04-30T07:33:23.383Z,39.60
2023-04-30T07:35:52.700Z,38.90
2023-04-30T07:38:21.851Z,38.40
2023-04-30T07:40:50.175Z,37.40
2023-04-30T07:43:18.556Z,37.00
2023-04-30T07:45:49.534Z,37.00
2023-04-30T07:48:19.321Z,36.30
2023-04-30T07:50:50.774Z,35.80
2023-04-30T07:53:21.197Z,35.00
2023-04-30T07:55:49.648Z,34.10
2023-04-30T07:58:18.119Z,33.60
2023-04-30T08:00:46.774Z,33.40
2023-04-30T08:03:15.234Z,33.50
2023-04-30T08:05:45.039Z,33.30
2023-04-30T08:08:13.510Z,33.40
2023-04-30T08:10:42.011Z,33.00
2023-04-30T08:13:10.612Z,32.60
2023-04-30T08:15:40.125Z,32.00
2023-04-30T08:18:08.600Z,31.10
2023-04-30T08:20:38.539Z,31.20
2023-04-30T08:23:08.458Z,31.00
2023-04-30T08:25:37.112Z,31.10
2023-04-30T08:28:05.735Z,31.00
2023-04-30T08:30:34.167Z,30.80
2023-04-30T08:33:02.748Z,30.70
2023-04-30T08:35:31.278Z,30.80
2023-04-30T08:37:59.631Z,30.70
2023-04-30T08:40:49.350Z,30.10
2023-04-30T08:43:19.702Z,30.40
2023-04-30T08:45:48.643Z,30.30
2023-04-30T08:48:18.228Z,29.90
2023-04-30T08:50:46.864Z,29.60
2023-04-30T08:53:17.599Z,29.60
2023-04-30T08:55:47.844Z,29.40
2023-04-30T08:58:16.301Z,29.00
2023-04-30T09:00:44.908Z,28.80
2023-04-30T09:03:13.487Z,28.80
2023-04-30T09:05:41.892Z,28.80
2023-04-30T09:08:10.441Z,29.30
2023-04-30T09:10:39.140Z,29.10
2023-04-30T09:13:10.417Z,28.80
2023-04-30T09:15:41.713Z,28.90
2023-04-30T09:18:12.894Z,28.70
2023-04-30T09:20:56.344Z,28.60
2023-04-30T09:23:25.260Z,28.20
2023-04-30T09:25:53.621Z,28.00
2023-04-30T09:28:25.360Z,27.80
2023-04-30T09:30:54.419Z,28.00
2023-04-30T09:33:22.900Z,28.30
2023-04-30T09:35:51.311Z,27.90
2023-04-30T09:38:30.863Z,27.90
2023-04-30T09:41:00.286Z,27.80
2023-04-30T09:43:31.085Z,27.70
2023-04-30T09:46:00.684Z,27.60
2023-04-30T09:48:29.664Z,27.90
2023-04-30T09:50:58.355Z,27.40
2023-04-30T09:53:26.691Z,27.30
2023-04-30T09:55:56.828Z,27.20
2023-04-30T09:58:31.660Z,27.00
2023-04-30T10:01:01.956Z,27.30
2023-04-30T10:03:33.182Z,27.40
2023-04-30T10:06:02.490Z,27.70
2023-04-30T10:08:35.415Z,28.10
2023-04-30T10:11:05.675Z,27.90
2023-04-30T10:13:42.922Z,27.70
2023-04-30T10:16:19.414Z,27.80
2023-04-30T10:18:49.949Z,27.90
2023-04-30T10:21:21.397Z,27.20
2023-04-30T10:23:50.139Z,27.50
2023-04-30T10:26:19.462Z,27.70
2023-04-30T10:28:51.196Z,27.80
2023-04-30T10:31:20.708Z,27.50
2023-04-30T10:33:59.837Z,27.20
2023-04-30T10:36:38.622Z,26.90
2023-04-30T10:39:07.642Z,26.60
2023-04-30T10:41:36.095Z,26.60
2023-04-30T10:44:06.580Z,27.10
2023-04-30T10:46:37.487Z,27.20
2023-04-30T10:49:06.125Z,27.20
2023-04-30T10:51:48.968Z,27.10
2023-04-30T10:54:26.252Z,27.50
2023-04-30T10:56:56.507Z,27.40
2023-04-30T10:59:26.449Z,27.50
2023-04-30T11:02:00.419Z,27.80
2023-04-30T11:04:29.627Z,27.90
2023-04-30T11:07:08.549Z,27.30
2023-04-30T11:09:39.269Z,27.00
2023-04-30T11:12:16.508Z,26.50
2023-04-30T11:14:47.662Z,26.20
2023-04-30T11:17:25.998Z,26.30
2023-04-30T11:19:56.022Z,26.20
2023-04-30T11:22:25.801Z,26.20
2023-04-30T11:24:56.276Z,26.50
2023-04-30T11:27:26.549Z,26.40
2023-04-30T11:29:57.427Z,26.50
2023-04-30T11:32:27.689Z,26.60
2023-04-30T11:34:56.321Z,26.30
2023-04-30T11:37:35.242Z,26.30
2023-04-30T11:40:06.061Z,26.20
2023-04-30T11:42:35.776Z,26.40
2023-04-30T11:45:08.472Z,26.40
2023-04-30T11:47:45.655Z,26.60
2023-04-30T11:50:16.352Z,26.80
2023-04-30T11:52:51.027Z,26.20
2023-04-30T11:55:20.947Z,26.20
2023-04-30T11:57:50.944Z,25.80
2023-04-30T12:00:22.933Z,25.50
2023-04-30T12:02:52.111Z,25.60
2023-04-30T12:05:22.581Z,25.40
2023-04-30T12:07:53.032Z,24.60
2023-04-30T12:10:21.882Z,24.80
2023-04-30T12:12:52.956Z,24.90
2023-04-30T12:15:27.243Z,24.30
2023-04-30T12:17:57.390Z,25.00
2023-04-30T12:20:28.524Z,24.50
2023-04-30T12:22:58.114Z,24.50
2023-04-30T12:25:29.688Z,24.10
2023-04-30T12:28:00.938Z,23.80
2023-04-30T12:30:31.024Z,23.70
2023-04-30T12:33:03.502Z,23.50
2023-04-30T12:35:32.691Z,23.90
2023-04-30T12:38:06.267Z,23.70
2023-04-30T12:40:35.658Z,23.30
2023-04-30T12:43:05.408Z,23.20
2023-04-30T12:45:51.326Z,23.20
2023-04-30T12:48:21.524Z,23.20
2023-04-30T12:50:54.089Z,23.30
2023-04-30T12:53:24.106Z,23.50
2023-04-30T12:56:15.965Z,23.20
2023-04-30T12:58:47.620Z,23.00
2023-04-30T13:01:19.506Z,23.10
2023-04-30T13:03:48.310Z,22.90
2023-04-30T13:06:17.077Z,23.20
2023-04-30T13:08:57.962Z,23.40
2023-04-30T13:11:28.440Z,23.60
2023-04-30T13:13:56.945Z,23.50
2023-04-30T13:16:26.760Z,23.50
2023-04-30T13:18:55.757Z,23.40
2023-04-30T13:21:25.084Z,23.40
2023-04-30T13:23:54.862Z,23.40
2023-04-30T13:26:24.032Z,23.60
2023-04-30T13:28:52.682Z,23.60
2023-04-30T13:31:21.237Z,23.10
2023-04-30T13:33:51.263Z,23.40
2023-04-30T13:36:19.707Z,23.30
2023-04-30T13:38:48.308Z,23.30
2023-04-30T13:41:16.814Z,23.40
2023-04-30T13:43:46.502Z,23.10
2023-04-30T13:46:15.644Z,23.20
2023-04-30T13:48:44.058Z,23.10
2023-04-30T13:51:13.670Z,23.10
2023-04-30T13:53:42.153Z,23.40
2023-04-30T13:56:10.531Z,23.30
2023-04-30T13:58:39.172Z,23.30
2023-04-30T14:01:08.529Z,23.30
2023-04-30T14:03:37.052Z,23.50
2023-04-30T14:06:06.094Z,23.80
2023-04-30T14:08:36.003Z,24.10
2023-04-30T14:11:04.470Z,24.40
2023-04-30T14:13:33.072Z,25.00
2023-04-30T14:16:02.504Z,25.50
2023-04-30T14:18:30.996Z,26.00
2023-04-30T14:20:59.476Z,26.40
2023-04-30T14:23:29.149Z,26.80
2023-04-30T14:25:58.838Z,27.20
2023-04-30T14:28:27.198Z,27.70
2023-04-30T14:30:55.593Z,28.10
2023-04-30T14:33:24.111Z,28.40
2023-04-30T14:35:52.492Z,28.60
2023-04-30T14:38:21.246Z,29.00
2023-04-30T14:40:49.607Z,29.30
2023-04-30T14:43:19.341Z,29.70
2023-04-30T14:45:47.926Z,29.90
2023-04-30T14:48:16.642Z,30.20
2023-04-30T14:50:45.704Z,30.40
2023-04-30T14:53:14.124Z,30.70
2023-04-30T14:55:42.606Z,30.90
2023-04-30T14:58:10.972Z,31.30
2023-04-30T15:00:40.910Z,31.70
2023-04-30T15:03:09.518Z,31.90
2023-04-30T15:05:38.009Z,32.10
2023-04-30T15:08:06.721Z,32.30
2023-04-30T15:10:35.429Z,32.50
2023-04-30T15:13:04.402Z,32.90
2023-04-30T15:15:33.108Z,33.20
2023-04-30T15:18:04.122Z,33.30
2023-04-30T15:20:32.613Z,33.30
2023-04-30T15:23:01.117Z,33.30
2023-04-30T15:25:30.470Z,33.40
2023-04-30T15:27:59.726Z,33.50
2023-04-30T15:30:28.189Z,33.70
2023-04-30T15:32:57.005Z,33.80
2023-04-30T15:35:27.752Z,34.10
2023-04-30T15:37:56.230Z,34.20
2023-04-30T15:40:24.760Z,34.30
2023-04-30T15:42:53.281Z,34.30
2023-04-30T15:45:21.896Z,34.30
2023-04-30T15:47:50.418Z,34.30
2023-04-30T15:50:18.938Z,34.40
2023-04-30T15:52:48.722Z,34.50
2023-04-30T15:55:17.374Z,34.80
2023-04-30T15:57:45.882Z,34.80
2023-04-30T16:00:15.925Z,34.60
2023-04-30T16:02:44.848Z,34.50
2023-04-30T16:05:13.415Z,34.50
2023-04-30T16:07:43.895Z,34.50
2023-04-30T16:10:14.735Z,34.50
2023-04-30T16:12:43.183Z,34.40
2023-04-30T16:15:12.621Z,34.40
2023-04-30T16:17:41.225Z,34.40
2023-04-30T16:20:10.530Z,34.60
2023-04-30T16:22:38.939Z,34.50
2023-04-30T16:25:10.274Z,34.70
2023-04-30T16:27:39.952Z,34.80
2023-04-30T16:30:09.680Z,34.80
2023-04-30T16:32:38.167Z,35.00
2023-04-30T16:35:07.261Z,35.00
2023-04-30T16:37:35.951Z,35.20
2023-04-30T16:40:06.436Z,35.30
2023-04-30T16:42:35.212Z,35.40
2023-04-30T16:45:05.243Z,35.40
2023-04-30T16:47:33.668Z,35.30
2023-04-30T16:50:02.091Z,35.30
2023-04-30T16:52:31.048Z,35.30
2023-04-30T16:54:59.401Z,35.40
2023-04-30T16:57:27.750Z,35.50
2023-04-30T16:59:56.491Z,35.60
2023-04-30T17:02:26.574Z,35.60
2023-04-30T17:04:55.261Z,35.70
2023-04-30T17:07:24.576Z,35.80
2023-04-30T17:09:54.223Z,36.00
2023-04-30T17:12:23.125Z,36.00
2023-04-30T17:14:52.301Z,36.00
2023-04-30T17:17:20.881Z,36.20
2023-04-30T17:19:50.661Z,36.30
2023-04-30T17:22:20.251Z,36.30
2023-04-30T17:24:48.896Z,36.30
2023-04-30T17:27:17.578Z,36.30
2023-04-30T17:29:46.084Z,36.40
2023-04-30T17:32:17.857Z,36.50
2023-04-30T17:34:47.114Z,36.50
2023-04-30T17:37:17.777Z,36.60
2023-04-30T17:39:46.538Z,36.90
2023-04-30T17:42:14.985Z,36.90
2023-04-30T17:44:43.420Z,37.10
2023-04-30T17:47:12.827Z,37.10
2023-04-30T17:49:42.083Z,37.20
2023-04-30T17:52:10.492Z,37.30
2023-04-30T17:54:40.325Z,38.00
2023-04-30T17:57:09.010Z,37.50
2023-04-30T17:59:39.581Z,37.60
2023-04-30T18:02:08.667Z,37.70
2023-04-30T18:04:37.364Z,37.80
2023-04-30T18:07:05.782Z,37.90
2023-04-30T18:09:35.190Z,38.00
2023-04-30T18:12:04.990Z,38.20
2023-04-30T18:14:33.436Z,38.30
2023-04-30T18:17:01.752Z,38.40
2023-04-30T18:19:30.205Z,38.60
2023-04-30T18:21:58.595Z,38.70
2023-04-30T18:24:28.490Z,38.70
2023-04-30T18:26:57.386Z,38.80
2023-04-30T18:29:27.523Z,38.70
2023-04-30T18:31:56.696Z,38.80
2023-04-30T18:34:25.293Z,38.90
2023-04-30T18:36:53.723Z,39.00
2023-04-30T18:39:22.373Z,39.10
2023-04-30T18:41:50.914Z,39.20
2023-04-30T18:44:20.432Z,39.20
2023-04-30T18:46:50.092Z,39.50
2023-04-30T18:49:18.524Z,39.70
2023-04-30T18:51:47.054Z,39.70
2023-04-30T18:54:15.483Z,39.70
2023-04-30T18:56:44.634Z,39.80
2023-04-30T18:59:14.728Z,40.00
2023-04-30T19:01:43.201Z,40.00
2023-04-30T19:04:15.950Z,40.10
2023-04-30T19:06:46.118Z,40.20
2023-04-30T19:09:15.672Z,40.40
2023-04-30T19:11:44.639Z,40.40
2023-04-30T19:14:14.212Z,40.50
2023-04-30T19:16:42.672Z,40.70
2023-04-30T19:19:12.464Z,40.80
2023-04-30T19:21:40.858Z,40.90
2023-04-30T19:24:09.302Z,41.10
2023-04-30T19:26:38.006Z,41.50
2023-04-30T19:29:06.408Z,41.50
2023-04-30T19:31:35.542Z,41.50
2023-04-30T19:34:04.202Z,41.70
2023-04-30T19:36:34.024Z,41.80
2023-04-30T19:39:04.491Z,41.90
2023-04-30T19:41:33.122Z,42.00
2023-04-30T19:44:01.569Z,42.10
2023-04-30T19:46:30.062Z,42.20
2023-04-30T19:48:58.509Z,42.30
2023-04-30T19:51:26.978Z,42.40
2023-04-30T19:53:59.331Z,42.40
2023-04-30T19:56:27.835Z,42.50
2023-04-30T19:58:56.915Z,42.50
2023-04-30T20:01:25.407Z,42.50
2023-04-30T20:03:54.116Z,42.50
2023-04-30T20:06:22.726Z,42.60
2023-04-30T20:08:51.117Z,42.60
2023-04-30T20:11:23.052Z,42.90
2023-04-30T20:13:51.594Z,43.20
2023-04-30T20:16:20.187Z,43.40
2023-04-30T20:18:48.989Z,43.40
2023-04-30T20:21:19.982Z,43.40
2023-04-30T20:23:49.296Z,43.70
2023-04-30T20:26:18.373Z,43.50
2023-04-30T20:28:48.300Z,43.50
2023-04-30T20:31:16.761Z,43.40
2023-04-30T20:33:46.030Z,43.60
2023-04-30T20:36:14.623Z,43.70
2023-04-30T20:38:43.012Z,43.60
2023-04-30T20:41:11.350Z,44.10
2023-04-30T20:43:39.692Z,43.50
2023-04-30T20:46:09.497Z,43.60
2023-04-30T20:48:37.995Z,43.80
2023-04-30T20:51:06.353Z,44.10
2023-04-30T20:53:34.836Z,44.60
2023-04-30T20:56:03.486Z,44.10
2023-04-30T20:58:31.888Z,44.40
2023-04-30T21:01:00.771Z,44.60
2023-04-30T21:03:30.614Z,44.60
2023-04-30T21:05:59.125Z,44.50
2023-04-30T21:08:27.637Z,44.70
2023-04-30T21:10:56.059Z,44.90
2023-04-30T21:13:24.614Z,44.90
2023-04-30T21:15:54.577Z,45.10
2023-04-30T21:18:23.262Z,45.00
2023-04-30T21:20:53.666Z,45.00
2023-04-30T21:23:22.037Z,45.00
2023-04-30T21:25:50.691Z,45.00
2023-04-30T21:28:19.098Z,45.00
2023-04-30T21:30:47.563Z,45.10
2023-04-30T21:33:16.149Z,45.00
2023-04-30T21:35:45.361Z,45.00
2023-04-30T21:38:15.116Z,44.90
2023-04-30T21:40:44.431Z,44.90
2023-04-30T21:43:12.820Z,44.90
2023-04-30T21:45:43.402Z,44.80
2023-04-30T21:48:12.231Z,44.80
2023-04-30T21:50:40.678Z,44.90
2023-04-30T21:53:10.224Z,44.90
2023-04-30T21:55:39.890Z,45.10
2023-04-30T21:58:08.257Z,45.00
2023-04-30T22:00:38.579Z,45.10
2023-04-30T22:03:07.116Z,45.00
2023-04-30T22:05:35.480Z,45.20
2023-04-30T22:08:04.233Z,45.40
2023-04-30T22:10:33.190Z,45.50
2023-04-30T22:13:02.942Z,46.20
2023-04-30T22:15:44.597Z,46.40
2023-04-30T22:18:16.484Z,46.60
2023-04-30T22:20:44.977Z,46.80
2023-04-30T22:23:13.535Z,46.70
2023-04-30T22:25:41.885Z,47.00
2023-04-30T22:28:11.966Z,46.80
2023-04-30T22:30:40.616Z,47.10
2023-04-30T22:33:09.112Z,46.90
2023-04-30T22:35:39.459Z,47.30
2023-04-30T22:38:08.690Z,47.80
2023-04-30T22:40:40.339Z,47.40
2023-04-30T22:43:10.609Z,47.40
2023-04-30T22:45:40.634Z,47.40
2023-04-30T22:48:10.858Z,47.30
2023-04-30T22:50:39.573Z,47.40
2023-04-30T22:53:08.617Z,47.40
2023-04-30T22:55:37.298Z,47.60
2023-04-30T22:58:05.701Z,47.40
2023-04-30T23:00:34.300Z,47.20
2023-04-30T23:03:04.235Z,47.00
2023-04-30T23:05:32.924Z,47.20
2023-04-30T23:08:02.167Z,47.40
2023-04-30T23:10:30.542Z,47.90
2023-04-30T23:12:59.234Z,47.20
2023-04-30T23:15:27.897Z,47.00
2023-04-30T23:17:57.273Z,47.00
2023-04-30T23:20:27.290Z,47.10
2023-04-30T23:22:56.223Z,47.00
2023-04-30T23:25:24.545Z,47.00
2023-04-30T23:27:54.041Z,47.00
2023-04-30T23:30:23.862Z,47.10
2023-04-30T23:32:52.382Z,47.20
2023-04-30T23:35:21.185Z,47.20
2023-04-30T23:37:51.243Z,47.20
2023-04-30T23:40:20.098Z,47.20
2023-04-30T23:42:48.448Z,47.30
2023-04-30T23:45:16.964Z,47.20
2023-04-30T23:47:45.431Z,47.40
2023-04-30T23:50:13.827Z,47.20
2023-04-30T23:52:42.261Z,47.10
2023-04-30T23:55:12.326Z,47.20
2023-04-30T23:57:40.781Z,47.20
